Roseau, Minnesota
Current Conditions -  °F | °C
As of 8:34 AM on Thursday 29 Jan 2015 (Local Time) from KROX Reporting Station
Scattered Clouds Scattered Clouds  
Wind Chill: -13°   Ceiling: Unl
Heat Index:   Visibility: 10mi
Dew Point:   Wind: 20mph
Humidity: 72%   Direction: 320°NW
Pressure: 30.34"   Gusts: 25mph
Location:  48.85°N, 95.76°W
Report Text: KROX 291434Z AUTO 32017G22KT 10SM SCT017 M14/M18 A3034 RMK AO2
Loading
Personal Weather Stations






























Interactive Weather Map New forecast layout! Learn more

10-Day Weather Forecast

Advertisements
Track Severe Weather on mobile